Time;durP1;ratioP1;P1;durP2;ratioP2;P2;SDS_P1;SDS_P2;PMS_P1;PMS_P2;Temp;Humidity;BMP_temperature;BMP_pressure;BME280_temperature;BME280_humidity;BME280_pressure;Samples;Min_cycle;Max_cycle;Signal;HPM_P1;HPM_P2
2022/05/10 00:00:06;;;;;;;7.10;3.40;;;16.00;62.90;;;;;;5057934;28;20475;-38
2022/05/10 00:02:35;;;;;;;9.30;3.90;;;16.00;62.90;;;;;;5058120;28;20424;-39
2022/05/10 00:05:02;;;;;;;5.83;3.67;;;16.00;63.30;;;;;;5057761;28;20844;-38
2022/05/10 00:07:33;;;;;;;4.57;3.43;;;15.90;63.30;;;;;;5057848;28;20515;-36
2022/05/10 00:10:02;;;;;;;6.10;3.20;;;15.90;62.80;;;;;;5057776;28;20455;-39
2022/05/10 00:12:29;;;;;;;5.80;3.87;;;15.90;63.10;;;;;;5057978;28;20468;-39
2022/05/10 00:14:59;;;;;;;5.90;3.60;;;15.80;63.60;;;;;;5057527;28;20464;-34
2022/05/10 00:17:34;;;;;;;5.00;3.40;;;15.80;63.80;;;;;;5058350;28;20501;-39
2022/05/10 00:20:04;;;;;;;6.03;3.43;;;15.80;63.90;;;;;;5057726;28;20435;-38
2022/05/10 00:22:31;;;;;;;5.20;3.60;;;15.80;64.20;;;;;;5043234;28;20467;-39
2022/05/10 00:24:58;;;;;;;7.47;3.93;;;15.70;64.30;;;;;;5039188;28;20832;-39
2022/05/10 00:27:24;;;;;;;5.07;4.00;;;15.70;64.30;;;;;;5039079;28;20455;-43
2022/05/10 00:29:51;;;;;;;4.90;4.07;;;15.70;64.50;;;;;;5039571;28;20538;-40
2022/05/10 00:32:18;;;;;;;7.50;3.73;;;15.60;64.30;;;;;;5038919;28;20901;-39
2022/05/10 00:34:44;;;;;;;4.80;3.50;;;15.60;64.20;;;;;;5040769;28;20471;-41
2022/05/10 00:37:14;;;;;;;6.63;3.40;;;15.70;64.60;;;;;;5041805;28;20440;-48
2022/05/10 00:39:41;;;;;;;4.40;3.27;;;15.60;64.70;;;;;;5039550;28;20957;-38
2022/05/10 00:42:14;;;;;;;6.27;3.93;;;15.60;64.80;;;;;;5039355;28;20494;-39
2022/05/10 00:44:45;;;;;;;3.77;3.30;;;15.60;65.20;;;;;;5039212;28;20497;-39
2022/05/10 00:47:18;;;;;;;7.07;3.60;;;15.60;65.90;;;;;;5039230;28;20468;-47
2022/05/10 00:49:49;;;;;;;6.67;4.00;;;15.60;65.70;;;;;;5038133;28;20441;-41
2022/05/10 00:52:23;;;;;;;7.30;3.47;;;15.50;65.40;;;;;;5037603;28;20522;-40
2022/05/10 00:54:58;;;;;;;5.47;3.60;;;15.50;65.80;;;;;;5036350;28;20428;-41
2022/05/10 00:57:32;;;;;;;4.40;3.20;;;15.40;65.70;;;;;;5037535;28;20474;-40
2022/05/10 01:00:07;;;;;;;6.10;3.80;;;15.30;66.00;;;;;;5037619;28;20432;-40
2022/05/10 01:02:42;;;;;;;17.63;3.80;;;15.30;66.50;;;;;;5039210;28;20472;-40
2022/05/10 01:05:15;;;;;;;8.70;3.50;;;15.30;67.00;;;;;;5040866;28;20436;-40
2022/05/10 01:07:52;;;;;;;6.10;3.83;;;15.30;67.20;;;;;;5038983;28;20468;-40
2022/05/10 01:10:35;;;;;;;4.67;3.57;;;15.20;67.10;;;;;;5039066;28;20432;-40
2022/05/10 01:13:10;;;;;;;6.00;3.70;;;15.20;67.50;;;;;;5038719;28;20542;-41
2022/05/10 01:15:41;;;;;;;7.47;3.13;;;15.10;67.70;;;;;;5038413;28;20428;-42
2022/05/10 01:18:07;;;;;;;8.03;3.93;;;15.10;68.50;;;;;;5038163;28;20444;-39
2022/05/10 01:20:40;;;;;;;3.73;3.00;;;15.10;68.50;;;;;;5037191;28;20460;-39
2022/05/10 01:23:32;;;;;;;8.40;3.77;;;15.10;69.30;;;;;;5037291;28;20910;-39
2022/05/10 01:26:05;;;;;;;10.70;4.13;;;15.00;69.10;;;;;;5038193;28;20500;-38
2022/05/10 01:28:37;;;;;;;9.47;4.10;;;15.00;69.60;;;;;;5038300;28;20898;-41
2022/05/10 01:31:10;;;;;;;4.80;3.50;;;15.00;69.90;;;;;;5039335;28;20587;-40
2022/05/10 01:33:43;;;;;;;6.87;3.60;;;15.00;70.40;;;;;;5038086;28;20894;-40
2022/05/10 01:36:18;;;;;;;8.40;4.30;;;14.90;70.80;;;;;;5038552;28;20464;-39
2022/05/10 01:38:55;;;;;;;9.00;4.00;;;14.80;70.90;;;;;;5038260;28;20444;-37
2022/05/10 01:41:29;;;;;;;4.27;3.50;;;14.90;71.90;;;;;;5038142;28;20469;-39
2022/05/10 01:44:04;;;;;;;6.03;3.47;;;14.80;72.00;;;;;;5038217;28;20432;-39
2022/05/10 01:46:32;;;;;;;6.00;3.50;;;14.80;71.90;;;;;;5039204;28;20553;-40
2022/05/10 01:49:09;;;;;;;5.80;3.67;;;14.80;73.30;;;;;;5039996;28;20471;-39
2022/05/10 01:51:43;;;;;;;5.97;4.60;;;14.80;72.90;;;;;;5038532;28;20493;-40
2022/05/10 01:54:37;;;;;;;9.40;5.43;;;14.70;73.00;;;;;;5038007;28;20428;-39
2022/05/10 01:57:05;;;;;;;6.30;4.23;;;14.70;73.60;;;;;;5037950;28;20530;-40
2022/05/10 01:59:33;;;;;;;4.70;3.60;;;14.70;74.10;;;;;;5038153;28;20802;-38
2022/05/10 02:02:02;;;;;;;5.97;4.07;;;14.60;74.20;;;;;;5038390;28;20455;-41
2022/05/10 02:04:34;;;;;;;5.10;3.70;;;14.60;75.00;;;;;;5037849;28;20974;-40
2022/05/10 02:07:06;;;;;;;10.23;4.80;;;14.50;76.00;;;;;;5037368;28;20464;-42
2022/05/10 02:09:37;;;;;;;6.13;4.10;;;14.50;76.00;;;;;;5037811;28;20471;-39
2022/05/10 02:12:09;;;;;;;5.50;3.97;;;14.50;76.80;;;;;;5037504;28;20452;-40
2022/05/10 02:14:43;;;;;;;9.10;5.53;;;14.50;77.60;;;;;;5039755;28;20464;-40
2022/05/10 02:17:15;;;;;;;6.23;3.73;;;14.50;77.80;;;;;;5040085;28;20482;-40
2022/05/10 02:19:50;;;;;;;6.13;4.23;;;14.50;78.50;;;;;;5038429;28;20472;-41
2022/05/10 02:22:22;;;;;;;4.83;3.70;;;14.40;78.00;;;;;;5037710;28;20549;-40
2022/05/10 02:24:55;;;;;;;9.23;4.40;;;14.40;78.50;;;;;;5037670;28;20447;-40
2022/05/10 02:27:28;;;;;;;11.20;4.30;;;14.30;79.80;;;;;;5037624;28;20464;-40
2022/05/10 02:30:02;;;;;;;7.60;3.40;;;14.30;80.50;;;;;;5037579;28;20518;-39
2022/05/10 02:35:20;;;;;;;6.40;3.73;;;14.30;81.50;;;;;;5037867;28;20412;-39
2022/05/10 02:37:46;;;;;;;6.57;4.30;;;14.30;81.20;;;;;;5037275;28;20522;-38
2022/05/10 02:40:15;;;;;;;6.30;4.17;;;14.20;81.50;;;;;;5037295;28;20482;-40
2022/05/10 02:42:44;;;;;;;10.23;4.03;;;14.20;81.70;;;;;;5037422;28;20491;-42
2022/05/10 02:45:12;;;;;;;6.83;3.80;;;14.20;82.70;;;;;;5036929;28;21142;-41
2022/05/10 02:47:42;;;;;;;6.00;4.23;;;14.20;82.70;;;;;;5037116;28;20483;-39
2022/05/10 02:50:23;;;;;;;9.53;4.53;;;14.20;83.60;;;;;;5037233;28;20586;-40
2022/05/10 02:52:50;;;;;;;5.07;4.03;;;14.10;83.90;;;;;;5036817;28;20468;-41
2022/05/10 02:55:20;;;;;;;7.23;4.63;;;14.10;85.10;;;;;;5040035;28;20433;-41
2022/05/10 02:57:49;;;;;;;8.97;4.43;;;14.00;85.70;;;;;;5037734;28;20440;-41
2022/05/10 03:00:18;;;;;;;4.17;3.77;;;14.00;86.90;;;;;;5036704;28;20448;-44
2022/05/10 03:02:49;;;;;;;7.70;4.27;;;14.00;87.30;;;;;;5037340;28;20546;-40
2022/05/10 03:05:16;;;;;;;4.53;4.10;;;14.00;88.20;;;;;;5036980;28;20503;-41
2022/05/10 03:07:42;;;;;;;8.20;4.83;;;13.90;88.90;;;;;;5036958;28;20479;-44
2022/05/10 03:10:10;;;;;;;9.57;4.87;;;13.90;89.80;;;;;;5036933;28;20506;-40
2022/05/10 03:12:37;;;;;;;4.57;3.30;;;13.80;90.10;;;;;;5037472;28;20456;-42
2022/05/10 03:15:04;;;;;;;7.83;4.37;;;13.80;90.60;;;;;;5037571;28;20452;-43
2022/05/10 03:17:33;;;;;;;5.87;4.40;;;13.70;90.90;;;;;;5038266;28;20424;-45
2022/05/10 03:19:59;;;;;;;5.80;4.10;;;13.70;92.00;;;;;;5039597;28;20462;-42
2022/05/10 03:22:26;;;;;;;12.43;4.73;;;13.70;91.80;;;;;;5036967;28;20832;-40
2022/05/10 03:24:53;;;;;;;6.40;4.60;;;13.60;92.00;;;;;;5036532;28;20506;-43
2022/05/10 03:27:19;;;;;;;8.90;5.17;;;13.60;92.60;;;;;;5036892;28;20495;-40
2022/05/10 03:29:46;;;;;;;5.33;4.10;;;13.70;92.50;;;;;;5036800;28;20448;-43
2022/05/10 03:32:13;;;;;;;9.53;4.20;;;13.60;92.70;;;;;;5036984;28;20483;-41
2022/05/10 03:34:57;;;;;;;11.97;4.80;;;13.60;93.00;;;;;;5036976;28;20456;-46
2022/05/10 03:37:26;;;;;;;8.40;3.80;;;13.50;93.20;;;;;;5036964;28;20564;-39
2022/05/10 03:39:53;;;;;;;7.30;4.10;;;13.50;93.90;;;;;;5036872;28;20436;-41
2022/05/10 03:42:20;;;;;;;6.00;4.40;;;13.50;94.00;;;;;;5037367;28;20465;-41
2022/05/10 03:44:49;;;;;;;6.30;4.27;;;13.50;94.20;;;;;;5037122;28;20539;-41
2022/05/10 03:47:17;;;;;;;6.37;4.87;;;13.50;94.40;;;;;;5037343;28;20483;-41
2022/05/10 03:49:46;;;;;;;6.20;3.83;;;13.50;94.70;;;;;;5036957;28;20496;-40
2022/05/10 03:52:14;;;;;;;6.27;4.13;;;13.40;95.10;;;;;;5036714;28;20464;-41
2022/05/10 03:54:40;;;;;;;9.53;4.37;;;13.40;95.50;;;;;;5036551;28;20948;-42
2022/05/10 03:57:07;;;;;;;9.27;4.47;;;13.50;95.50;;;;;;5036963;28;20450;-43
2022/05/10 03:59:34;;;;;;;5.53;4.30;;;13.50;96.00;;;;;;5036968;28;20452;-43
2022/05/10 04:02:01;;;;;;;9.70;4.87;;;13.40;96.00;;;;;;5036705;28;20504;-41
2022/05/10 04:04:27;;;;;;;6.73;4.57;;;13.40;96.20;;;;;;5037482;28;20507;-43
2022/05/10 04:06:56;;;;;;;5.67;4.60;;;13.40;96.60;;;;;;5037670;28;20530;-43
2022/05/10 04:09:22;;;;;;;5.53;4.20;;;13.40;96.90;;;;;;5039279;28;20444;-39
2022/05/10 04:11:49;;;;;;;14.67;5.03;;;13.40;97.20;;;;;;5037632;28;20530;-42
2022/05/10 04:14:16;;;;;;;9.13;4.77;;;13.40;97.10;;;;;;5036654;28;20448;-43
2022/05/10 04:16:42;;;;;;;8.40;5.47;;;13.40;97.60;;;;;;5037068;28;20464;-42
2022/05/10 04:19:09;;;;;;;11.27;4.70;;;13.50;97.70;;;;;;5037786;28;20517;-43
2022/05/10 04:21:36;;;;;;;13.03;4.53;;;13.50;97.70;;;;;;5037315;28;20448;-40
2022/05/10 04:24:04;;;;;;;18.03;4.70;;;13.50;97.60;;;;;;5036831;28;20792;-40
2022/05/10 04:26:31;;;;;;;8.80;5.30;;;13.50;98.00;;;;;;5036560;28;20971;-42
2022/05/10 04:28:58;;;;;;;7.70;5.47;;;13.60;98.20;;;;;;5037963;28;20910;-41
2022/05/10 04:31:25;;;;;;;7.40;5.37;;;13.60;97.80;;;;;;5043001;28;20462;-42
2022/05/10 04:33:52;;;;;;;7.47;4.97;;;13.70;98.20;;;;;;5042283;28;20478;-38
2022/05/10 04:36:23;;;;;;;6.77;4.70;;;13.70;97.80;;;;;;5041176;28;20440;-41
2022/05/10 04:38:50;;;;;;;6.13;4.77;;;13.70;98.20;;;;;;5040249;28;20566;-42
2022/05/10 04:41:26;;;;;;;5.90;4.27;;;13.70;97.80;;;;;;5040239;28;20441;-41
2022/05/10 04:43:53;;;;;;;6.73;4.37;;;13.70;98.20;;;;;;5040786;28;20471;-40
2022/05/10 04:46:20;;;;;;;11.27;4.67;;;13.80;97.50;;;;;;5039666;28;20500;-39
2022/05/10 04:48:46;;;;;;;6.90;4.97;;;13.80;97.50;;;;;;5040985;28;20436;-39
2022/05/10 04:51:13;;;;;;;6.00;4.40;;;13.80;97.80;;;;;;5040968;28;20994;-42
2022/05/10 04:53:40;;;;;;;8.20;4.47;;;13.90;97.80;;;;;;5039571;28;20848;-42
2022/05/10 04:56:06;;;;;;;7.83;5.50;;;13.90;97.10;;;;;;5041192;28;20471;-44
2022/05/10 04:58:35;;;;;;;9.20;4.87;;;14.00;97.40;;;;;;5041958;28;20452;-41
2022/05/10 05:01:05;;;;;;;7.50;4.83;;;14.10;96.90;;;;;;5039085;28;20503;-40
2022/05/10 05:03:33;;;;;;;8.13;4.97;;;14.10;96.50;;;;;;5037955;28;20889;-40
2022/05/10 05:05:59;;;;;;;6.37;4.90;;;14.10;96.70;;;;;;5037657;28;20464;-41
2022/05/10 05:08:26;;;;;;;7.67;4.83;;;14.10;97.30;;;;;;5037487;28;20480;-43
2022/05/10 05:10:57;;;;;;;11.63;5.70;;;14.20;96.50;;;;;;5037683;28;20543;-39
2022/05/10 05:13:24;;;;;;;7.97;5.43;;;14.20;96.50;;;;;;5037615;28;20507;-40
2022/05/10 05:15:52;;;;;;;7.77;4.73;;;14.30;96.30;;;;;;5037288;28;20444;-42
2022/05/10 05:18:18;;;;;;;11.37;5.10;;;14.40;96.10;;;;;;5037255;28;20526;-41
2022/05/10 05:20:45;;;;;;;8.10;4.10;;;14.40;96.10;;;;;;5037269;28;20514;-40
2022/05/10 05:23:12;;;;;;;9.03;5.07;;;14.50;96.30;;;;;;5038276;28;20542;-48
2022/05/10 05:25:41;;;;;;;8.27;4.50;;;14.70;96.40;;;;;;5038536;28;20836;-41
2022/05/10 05:28:09;;;;;;;6.03;4.70;;;14.70;96.10;;;;;;5037173;28;21007;-43
2022/05/10 05:30:36;;;;;;;7.30;4.37;;;14.80;96.30;;;;;;5037139;28;20587;-41
2022/05/10 05:33:05;;;;;;;10.10;4.53;;;14.90;95.60;;;;;;5036998;28;20460;-42
2022/05/10 05:35:32;;;;;;;10.40;4.87;;;15.00;95.80;;;;;;5037015;28;20472;-43
2022/05/10 05:37:59;;;;;;;6.90;3.93;;;15.10;96.10;;;;;;5036675;28;20444;-44
2022/05/10 05:40:26;;;;;;;12.90;6.20;;;15.20;95.50;;;;;;5036056;28;20476;-41
2022/05/10 05:42:54;;;;;;;9.37;4.87;;;15.30;95.00;;;;;;5036444;28;20770;-39
2022/05/10 05:45:23;;;;;;;7.43;4.60;;;15.50;95.00;;;;;;5036634;28;20514;-41
2022/05/10 05:47:50;;;;;;;8.00;4.50;;;15.50;94.20;;;;;;5036486;28;20808;-39
2022/05/10 05:50:20;;;;;;;6.80;4.33;;;15.60;94.50;;;;;;5036675;28;20443;-39
2022/05/10 05:52:48;;;;;;;9.63;4.60;;;15.70;94.20;;;;;;5036413;28;20460;-41
2022/05/10 05:55:17;;;;;;;14.40;5.30;;;15.80;94.00;;;;;;5037044;28;20499;-40
2022/05/10 05:57:44;;;;;;;8.97;4.20;;;15.90;93.90;;;;;;5037770;28;20518;-42
2022/05/10 06:00:14;;;;;;;10.90;5.00;;;16.00;93.90;;;;;;5037927;28;20455;-43
2022/05/10 06:02:42;;;;;;;7.50;4.13;;;16.30;93.60;;;;;;5037719;28;20502;-44
2022/05/10 06:05:09;;;;;;;8.30;4.80;;;16.40;92.60;;;;;;5036420;28;20460;-46
2022/05/10 06:07:38;;;;;;;7.50;4.30;;;16.40;92.00;;;;;;5037650;28;20476;-41
2022/05/10 06:10:06;;;;;;;11.43;4.97;;;16.40;92.20;;;;;;5037242;28;20425;-40
2022/05/10 06:12:33;;;;;;;6.67;5.10;;;16.40;93.10;;;;;;5036009;28;20445;-41
2022/05/10 06:15:00;;;;;;;7.97;4.70;;;16.50;92.70;;;;;;5036139;28;20790;-43
2022/05/10 06:17:26;;;;;;;8.27;5.43;;;16.60;92.30;;;;;;5036148;28;20436;-44
2022/05/10 06:19:53;;;;;;;6.10;4.30;;;16.70;92.40;;;;;;5036726;28;20541;-41
2022/05/10 06:22:20;;;;;;;9.10;4.60;;;16.70;92.10;;;;;;5036840;28;20440;-40
2022/05/10 06:24:48;;;;;;;8.20;4.93;;;16.80;92.10;;;;;;5035771;28;20472;-46
2022/05/10 06:27:16;;;;;;;9.27;4.70;;;17.00;91.80;;;;;;5035803;28;20487;-41
2022/05/10 06:29:44;;;;;;;7.23;4.63;;;17.10;91.60;;;;;;5035721;28;20444;-38
2022/05/10 06:32:12;;;;;;;9.73;4.40;;;17.20;91.40;;;;;;5036336;28;20509;-48
2022/05/10 06:34:41;;;;;;;9.83;5.10;;;17.30;91.40;;;;;;5036693;28;20893;-42
2022/05/10 06:38:16;;;;;;;7.83;5.10;;;17.50;91.10;;;;;;5035975;28;20510;-43
2022/05/10 06:40:10;;;;;;;8.87;5.17;;;17.60;91.00;;;;;;5035249;28;20454;-39
2022/05/10 06:42:37;;;;;;;10.07;4.50;;;17.80;91.20;;;;;;5035502;28;20428;-42
2022/05/10 06:45:08;;;;;;;5.60;4.63;;;17.90;90.50;;;;;;5035584;28;20449;-38
2022/05/10 06:47:35;;;;;;;12.20;4.77;;;18.00;90.40;;;;;;5035389;28;20596;-45
2022/05/10 06:50:04;;;;;;;12.07;4.70;;;18.10;90.20;;;;;;5035404;28;20444;-42
2022/05/10 06:52:30;;;;;;;11.07;4.73;;;18.20;89.30;;;;;;5035052;28;20847;-40
2022/05/10 06:54:57;;;;;;;6.20;4.30;;;18.30;88.50;;;;;;5035527;28;20448;-42
2022/05/10 06:57:26;;;;;;;8.67;4.07;;;18.40;88.30;;;;;;5034929;28;20456;-39
2022/05/10 06:59:54;;;;;;;5.40;3.57;;;18.50;87.80;;;;;;5035729;28;20448;-42
2022/05/10 07:02:21;;;;;;;12.33;6.30;;;18.60;87.10;;;;;;5037308;28;20456;-41
2022/05/10 07:04:48;;;;;;;10.93;3.90;;;18.60;87.60;;;;;;5035957;28;20495;-40
2022/05/10 07:07:14;;;;;;;5.50;3.63;;;18.70;87.20;;;;;;5035018;28;20486;-42
2022/05/10 07:09:41;;;;;;;7.37;4.87;;;18.80;87.10;;;;;;5034995;28;20476;-42
2022/05/10 07:12:09;;;;;;;7.03;4.33;;;18.90;86.70;;;;;;5035035;28;20448;-42
2022/05/10 07:14:37;;;;;;;6.60;4.40;;;19.00;86.80;;;;;;5034868;28;20472;-38
2022/05/10 07:17:04;;;;;;;7.50;4.27;;;19.20;86.60;;;;;;5034900;28;20433;-41
2022/05/10 07:19:31;;;;;;;7.00;3.70;;;19.60;85.30;;;;;;5034914;28;20452;-38
2022/05/10 07:21:58;;;;;;;7.00;4.70;;;20.40;83.10;;;;;;5034915;28;20502;-41
2022/05/10 07:24:25;;;;;;;7.10;4.60;;;21.60;79.60;;;;;;5035521;28;20488;-41
2022/05/10 07:26:51;;;;;;;8.60;6.20;;;22.30;75.80;;;;;;5035077;28;20448;-41
2022/05/10 07:29:18;;;;;;;7.50;4.93;;;22.60;73.30;;;;;;5034883;28;20484;-43
2022/05/10 07:31:46;;;;;;;7.03;4.73;;;22.60;71.60;;;;;;5034731;28;20476;-38
2022/05/10 07:34:13;;;;;;;9.97;4.70;;;22.50;70.60;;;;;;5034683;28;20459;-44
2022/05/10 07:36:41;;;;;;;5.40;4.23;;;22.50;70.70;;;;;;5034401;28;20451;-44
2022/05/10 07:39:11;;;;;;;5.27;4.20;;;23.00;70.00;;;;;;5034706;28;20425;-43
2022/05/10 07:41:39;;;;;;;5.83;4.30;;;23.80;67.60;;;;;;5034528;28;20444;-43
2022/05/10 07:44:11;;;;;;;4.93;4.07;;;24.80;64.80;;;;;;5034590;28;20456;-43
2022/05/10 07:46:38;;;;;;;4.93;4.27;;;26.10;60.70;;;;;;5034753;28;20445;-50
2022/05/10 07:49:06;;;;;;;6.13;4.20;;;27.60;57.10;;;;;;5034477;28;20488;-40
2022/05/10 07:51:33;;;;;;;6.10;4.00;;;28.90;54.20;;;;;;5034160;28;20459;-41
2022/05/10 07:54:00;;;;;;;6.23;4.10;;;29.90;51.00;;;;;;5034523;28;20541;-41
2022/05/10 07:56:27;;;;;;;9.33;4.73;;;31.10;48.70;;;;;;5034365;28;20941;-42
2022/05/10 07:58:54;;;;;;;6.23;4.63;;;32.10;46.50;;;;;;5034103;28;20447;-43
2022/05/10 08:01:21;;;;;;;6.27;4.40;;;32.70;44.00;;;;;;5034464;28;20433;-53
2022/05/10 08:03:48;;;;;;;5.73;5.13;;;32.90;43.20;;;;;;5035396;28;20451;-43
2022/05/10 08:06:17;;;;;;;3.90;3.50;;;32.70;42.20;;;;;;5038404;28;20451;-43
2022/05/10 08:08:44;;;;;;;6.13;4.43;;;32.90;41.20;;;;;;5037945;28;20968;-51
2022/05/10 08:11:11;;;;;;;5.77;4.17;;;32.90;41.20;;;;;;5038232;28;20510;-42
2022/05/10 08:13:38;;;;;;;7.10;4.03;;;33.10;41.40;;;;;;5038179;28;20452;-43
2022/05/10 08:16:07;;;;;;;5.20;3.87;;;33.00;40.70;;;;;;5037845;28;20472;-43
2022/05/10 08:18:36;;;;;;;5.00;3.90;;;32.90;40.30;;;;;;5039209;28;20940;-40
2022/05/10 08:21:04;;;;;;;4.50;3.60;;;32.80;40.50;;;;;;5037889;28;20448;-44
2022/05/10 08:23:41;;;;;;;5.90;3.83;;;32.50;40.50;;;;;;5038103;28;20435;-46
2022/05/10 08:26:08;;;;;;;7.20;3.27;;;32.00;41.40;;;;;;5037973;28;20432;-46
2022/05/10 08:28:37;;;;;;;4.87;3.73;;;31.90;41.10;;;;;;5037795;28;20574;-41
2022/05/10 08:31:05;;;;;;;7.70;3.47;;;31.70;41.10;;;;;;5037696;28;20857;-42
2022/05/10 08:33:34;;;;;;;5.10;3.63;;;31.90;40.50;;;;;;5037741;28;20545;-43
2022/05/10 08:36:01;;;;;;;7.27;4.20;;;32.40;40.00;;;;;;5037645;28;20424;-40
2022/05/10 08:38:30;;;;;;;4.97;3.47;;;32.70;39.30;;;;;;5037547;28;20503;-43
2022/05/10 08:41:03;;;;;;;5.73;3.37;;;32.80;38.90;;;;;;5037664;28;20495;-38
2022/05/10 08:43:37;;;;;;;6.07;3.60;;;33.10;38.90;;;;;;5037502;28;20476;-39
2022/05/10 08:46:07;;;;;;;4.73;4.23;;;33.10;38.20;;;;;;5037428;28;20460;-41
2022/05/10 08:48:33;;;;;;;12.83;3.50;;;33.20;38.80;;;;;;5037570;28;20491;-43
2022/05/10 08:51:02;;;;;;;5.37;3.83;;;33.40;38.30;;;;;;5037239;28;20800;-41
2022/05/10 08:53:31;;;;;;;9.73;4.10;;;33.20;38.30;;;;;;5037279;28;20804;-45
2022/05/10 08:56:02;;;;;;;6.03;3.93;;;33.00;39.10;;;;;;5037450;28;20792;-40
2022/05/10 08:58:51;;;;;;;7.00;3.80;;;32.50;39.10;;;;;;5037494;28;20424;-44
2022/05/10 09:01:23;;;;;;;4.93;3.90;;;32.50;39.10;;;;;;5037383;28;20483;-43
2022/05/10 09:03:59;;;;;;;10.90;3.70;;;32.50;38.30;;;;;;5037108;28;20448;-42
2022/05/10 09:06:36;;;;;;;7.30;4.30;;;32.20;39.10;;;;;;5037220;28;20464;-46
2022/05/10 09:09:17;;;;;;;5.50;3.97;;;32.20;38.90;;;;;;5036375;28;20475;-46
2022/05/10 09:11:51;;;;;;;2.70;2.50;;;32.40;38.50;;;;;;5037147;28;20495;-41
2022/05/10 09:14:23;;;;;;;4.07;2.70;;;32.50;37.40;;;;;;5037161;28;20444;-44
2022/05/10 09:16:50;;;;;;;8.80;3.50;;;32.50;38.30;;;;;;5036115;28;20483;-44
2022/05/10 09:19:19;;;;;;;8.97;3.10;;;32.70;38.30;;;;;;5037283;28;20449;-44
2022/05/10 09:21:55;;;;;;;8.15;2.90;;;32.80;38.00;;;;;;5036341;28;20495;-43
2022/05/10 09:24:29;;;;;;;11.23;4.10;;;33.10;37.10;;;;;;5036825;28;20445;-45
2022/05/10 09:27:04;;;;;;;6.43;3.70;;;33.40;36.90;;;;;;5036958;28;20194;-43
2022/05/10 09:29:35;;;;;;;8.33;3.33;;;33.40;36.80;;;;;;5036750;28;20503;-44
2022/05/10 09:35:02;;;;;;;3.80;2.80;;;33.90;36.20;;;;;;5036667;28;20463;-41
2022/05/10 09:37:32;;;;;;;8.13;2.77;;;34.30;35.70;;;;;;5036764;28;20460;-42
2022/05/10 09:40:08;;;;;;;4.77;3.37;;;34.50;35.10;;;;;;5036434;28;20475;-48
2022/05/10 09:42:38;;;;;;;10.67;3.43;;;34.50;35.90;;;;;;5036826;28;20517;-44
2022/05/10 09:45:08;;;;;;;9.53;3.60;;;34.90;35.30;;;;;;5036766;28;20468;-39
2022/05/10 09:47:36;;;;;;;11.40;3.73;;;35.10;35.10;;;;;;5036362;28;20498;-52
2022/05/10 09:50:19;;;;;;;4.70;3.50;;;35.30;34.80;;;;;;5036641;28;20484;-45
2022/05/10 09:52:46;;;;;;;7.37;3.30;;;35.30;34.20;;;;;;5036218;28;20452;-55
2022/05/10 09:55:25;;;;;;;6.27;3.57;;;35.20;34.60;;;;;;5036574;28;20492;-39
2022/05/10 09:57:55;;;;;;;7.70;3.40;;;35.00;34.20;;;;;;5036384;28;20896;-43
2022/05/10 10:00:38;;;;;;;7.67;3.37;;;35.00;34.60;;;;;;5036398;28;20790;-43
2022/05/10 10:03:05;;;;;;;5.60;3.10;;;35.00;34.60;;;;;;5036200;28;20507;-43
2022/05/10 10:05:38;;;;;;;8.10;3.90;;;35.20;34.90;;;;;;5036301;28;20459;-41
2022/05/10 10:08:05;;;;;;;3.80;3.30;;;34.70;35.30;;;;;;5035916;28;20472;-39
2022/05/10 10:10:34;;;;;;;6.40;3.60;;;34.70;35.20;;;;;;5036119;28;20440;-43
2022/05/10 10:13:27;;;;;;;3.50;2.90;;;34.70;35.20;;;;;;5036557;28;20790;-39
2022/05/10 10:15:54;;;;;;;5.60;3.10;;;34.50;35.70;;;;;;5035828;28;20874;-43
2022/05/10 10:18:42;;;;;;;5.37;3.30;;;34.50;35.30;;;;;;5035870;28;20549;-43
2022/05/10 10:21:11;;;;;;;4.83;3.43;;;34.30;36.20;;;;;;5035962;28;20428;-41
2022/05/10 10:23:41;;;;;;;4.33;3.83;;;33.90;36.00;;;;;;5035752;28;20495;-46
2022/05/10 10:26:16;;;;;;;8.30;3.87;;;33.60;36.30;;;;;;5035287;28;20606;-41
2022/05/10 10:28:51;;;;;;;6.43;5.13;;;33.20;36.70;;;;;;5035547;28;20486;-44
2022/05/10 10:31:23;;;;;;;5.10;4.20;;;33.10;37.90;;;;;;5035754;28;20736;-45
2022/05/10 10:33:57;;;;;;;5.20;4.70;;;33.00;38.40;;;;;;5035392;28;20893;-43
2022/05/10 10:36:26;;;;;;;5.87;3.57;;;32.90;38.10;;;;;;5035722;28;20440;-43
2022/05/10 10:38:59;;;;;;;3.43;2.87;;;32.80;37.90;;;;;;5035315;28;20452;-41
2022/05/10 10:41:33;;;;;;;4.60;3.03;;;32.70;37.50;;;;;;5035480;28;20893;-43
2022/05/10 10:44:07;;;;;;;5.30;3.50;;;32.70;37.50;;;;;;5035485;28;20432;-41
2022/05/10 10:46:41;;;;;;;3.37;3.07;;;32.30;38.80;;;;;;5035525;28;20491;-38
2022/05/10 10:49:12;;;;;;;3.90;3.00;;;31.90;38.80;;;;;;5035417;28;20467;-39
2022/05/10 10:51:40;;;;;;;5.57;4.80;;;31.40;39.30;;;;;;5034948;28;21022;-41
2022/05/10 10:54:19;;;;;;;5.23;3.20;;;31.00;40.10;;;;;;5035033;28;20978;-44
2022/05/10 10:56:59;;;;;;;5.10;4.50;;;30.50;40.90;;;;;;5035264;28;20534;-41
2022/05/10 10:59:50;;;;;;;4.80;3.37;;;30.10;41.60;;;;;;5035137;28;20440;-41
2022/05/10 11:02:41;;;;;;;7.83;6.23;;;29.80;42.00;;;;;;5035026;28;20468;-40
2022/05/10 11:05:22;;;;;;;5.20;4.30;;;29.50;42.30;;;;;;5025890;28;20522;-42
2022/05/10 11:08:05;;;;;;;7.03;4.70;;;29.20;42.50;;;;;;5035090;28;20475;-41
2022/05/10 11:10:40;;;;;;;9.57;5.40;;;29.20;42.80;;;;;;5034917;28;20475;-42
2022/05/10 11:13:22;;;;;;;6.20;4.20;;;29.30;43.10;;;;;;5035164;28;20444;-40
2022/05/10 11:16:00;;;;;;;3.17;2.87;;;29.30;43.30;;;;;;5035154;28;20506;-45
2022/05/10 11:18:38;;;;;;;5.30;3.67;;;29.30;43.20;;;;;;5034648;28;20428;-39
2022/05/10 11:21:20;;;;;;;4.83;3.43;;;29.30;43.20;;;;;;5034553;28;20471;-43
2022/05/10 11:23:58;;;;;;;3.20;2.90;;;29.20;42.60;;;;;;5034994;28;20447;-41
2022/05/10 11:26:41;;;;;;;5.27;3.60;;;29.30;43.20;;;;;;5034754;28;20840;-39
2022/05/10 11:29:36;;;;;;;7.57;3.60;;;29.20;44.20;;;;;;5034718;28;20518;-42
2022/05/10 11:32:20;;;;;;;5.07;4.00;;;29.30;43.60;;;;;;5034623;28;20409;-43
2022/05/10 11:35:25;;;;;;;10.93;9.43;;;29.30;43.50;;;;;;5034899;28;20439;-50
2022/05/10 11:38:00;;;;;;;5.50;4.50;;;29.20;43.10;;;;;;5023860;28;20448;-39
2022/05/10 11:40:51;;;;;;;21.07;19.03;;;29.10;43.70;;;;;;5034601;28;20531;-40
2022/05/10 11:43:43;;;;;;;6.50;4.40;;;28.90;43.20;;;;;;5034591;28;20913;-41
2022/05/10 11:46:40;;;;;;;7.80;3.20;;;28.60;43.70;;;;;;5034385;28;20467;-45
2022/05/10 11:49:45;;;;;;;4.57;3.50;;;28.30;45.00;;;;;;5034479;28;20472;-41
2022/05/10 11:52:32;;;;;;;7.73;5.83;;;28.10;44.90;;;;;;5024575;28;20452;-42
2022/05/10 11:55:23;;;;;;;7.03;4.17;;;28.00;45.10;;;;;;5034589;28;20448;-45
2022/05/10 11:57:54;;;;;;;10.27;4.77;;;27.90;45.20;;;;;;5027255;28;20476;-41
2022/05/10 12:00:50;;;;;;;4.40;4.00;;;27.80;45.40;;;;;;5034311;28;20433;-49
2022/05/10 12:03:50;;;;;;;4.00;3.57;;;27.80;45.20;;;;;;5034527;28;20432;-41
2022/05/10 12:06:36;;;;;;;4.73;3.43;;;27.80;45.30;;;;;;5034479;28;20425;-41
2022/05/10 12:09:05;;;;;;;5.73;3.20;;;27.80;45.40;;;;;;5034062;28;20569;-41
2022/05/10 12:11:38;;;;;;;4.03;3.33;;;27.90;45.20;;;;;;5034410;28;20444;-40
2022/05/10 12:22:58;;;;;;;5.60;4.30;;;28.10;46.00;;;;;;5034233;28;20416;-43
2022/05/10 12:25:55;;;;;;;3.33;3.03;;;28.20;46.00;;;;;;5034190;28;20438;-37
2022/05/10 12:28:47;;;;;;;3.80;2.93;;;28.30;45.30;;;;;;5034292;28;20479;-48
2022/05/10 12:31:52;;;;;;;7.33;5.57;;;28.30;45.10;;;;;;5034250;28;20559;-44
2022/05/10 12:34:46;;;;;;;5.20;3.70;;;28.40;45.40;;;;;;5034308;28;20436;-42
2022/05/10 12:37:43;;;;;;;6.83;3.93;;;28.40;44.40;;;;;;5034095;28;20472;-41
2022/05/10 12:40:24;;;;;;;3.50;3.20;;;28.40;44.50;;;;;;5033873;28;20444;-44
2022/05/10 12:43:15;;;;;;;4.60;3.03;;;28.40;45.10;;;;;;5034223;28;20480;-40
2022/05/10 12:45:45;;;;;;;9.80;4.10;;;28.30;45.00;;;;;;5031584;28;20521;-45
2022/05/10 12:48:33;;;;;;;5.67;3.77;;;28.20;44.70;;;;;;5034185;28;20848;-39
2022/05/10 12:51:10;;;;;;;4.23;3.73;;;28.10;44.40;;;;;;5036660;28;20479;-43
2022/05/10 12:53:42;;;;;;;8.40;4.03;;;28.00;45.10;;;;;;5037515;28;20467;-42
2022/05/10 12:56:18;;;;;;;5.60;3.43;;;27.90;45.50;;;;;;5037229;28;20877;-41
2022/05/10 12:58:49;;;;;;;7.30;3.47;;;27.80;44.90;;;;;;5037353;28;20444;-43
2022/05/10 13:01:18;;;;;;;5.60;3.40;;;27.70;44.90;;;;;;5037632;28;20428;-43
2022/05/10 13:03:51;;;;;;;3.67;3.37;;;27.60;44.60;;;;;;5037300;28;20443;-42
2022/05/10 13:06:22;;;;;;;4.10;3.40;;;27.60;45.00;;;;;;5036974;28;20929;-40
2022/05/10 13:09:12;;;;;;;8.60;3.90;;;27.80;45.20;;;;;;5037051;28;20489;-39
2022/05/10 13:11:43;;;;;;;4.53;3.27;;;28.00;45.10;;;;;;5037096;28;20925;-42
2022/05/10 13:14:10;;;;;;;3.90;3.10;;;28.20;44.60;;;;;;5037207;28;20444;-40
2022/05/10 13:16:48;;;;;;;4.30;3.90;;;28.40;44.00;;;;;;5037061;28;20565;-44
2022/05/10 13:19:16;;;;;;;5.23;4.13;;;28.40;44.40;;;;;;5036886;28;20425;-43
2022/05/10 13:21:43;;;;;;;4.70;3.73;;;28.60;43.80;;;;;;5037024;28;20472;-43
2022/05/10 13:24:15;;;;;;;4.60;3.57;;;28.70;44.70;;;;;;5036969;28;20932;-41